createdAt,value
2023-03-26T00:01:41.488Z,4.20
2023-03-26T00:04:08.340Z,5.87
2023-03-26T00:06:39.039Z,4.20
2023-03-26T00:09:07.269Z,4.00
2023-03-26T00:11:34.499Z,9.13
2023-03-26T00:14:02.641Z,3.23
2023-03-26T00:16:30.983Z,3.90
2023-03-26T00:19:00.009Z,5.43
2023-03-26T00:21:29.036Z,5.73
2023-03-26T00:23:58.403Z,4.43
2023-03-26T00:26:25.384Z,6.43
2023-03-26T00:28:54.721Z,7.70
2023-03-26T00:31:22.013Z,3.90
2023-03-26T00:33:54.176Z,6.03
2023-03-26T00:36:25.462Z,3.83
2023-03-26T00:38:53.658Z,10.77
2023-03-26T00:41:25.993Z,10.17
2023-03-26T00:43:56.372Z,4.23
2023-03-26T00:46:23.745Z,5.10
2023-03-26T00:48:50.789Z,4.70
2023-03-26T00:51:18.886Z,5.50
2023-03-26T00:53:49.299Z,7.10
2023-03-26T00:56:16.647Z,9.53
2023-03-26T00:58:44.069Z,8.60
2023-03-26T01:01:14.353Z,3.93
2023-03-26T01:03:50.090Z,4.67
2023-03-26T01:06:27.786Z,6.40
2023-03-26T01:09:00.528Z,3.73
2023-03-26T01:11:31.888Z,11.57
2023-03-26T01:14:02.460Z,4.33
2023-03-26T01:16:34.428Z,7.07
2023-03-26T01:19:01.417Z,7.77
2023-03-26T01:21:30.403Z,8.50
2023-03-26T01:24:00.314Z,5.33
2023-03-26T01:26:48.864Z,6.00
2023-03-26T01:29:21.718Z,4.13
2023-03-26T01:32:02.481Z,7.43
2023-03-26T01:34:40.075Z,9.57
2023-03-26T01:37:16.201Z,8.57
2023-03-26T01:39:53.234Z,5.87
2023-03-26T01:42:29.724Z,5.47
2023-03-26T01:45:00.006Z,5.27
2023-03-26T01:47:27.971Z,8.80
2023-03-26T01:49:54.895Z,7.40
2023-03-26T01:52:26.172Z,4.90
2023-03-26T01:54:55.728Z,3.27
2023-03-26T01:57:34.541Z,7.93
2023-03-26T02:00:18.557Z,9.43
2023-03-26T02:02:59.214Z,7.40
2023-03-26T02:05:32.043Z,6.00
2023-03-26T02:08:09.618Z,6.13
2023-03-26T02:10:42.194Z,9.87
2023-03-26T02:13:09.288Z,9.57
2023-03-26T02:15:36.282Z,5.67
2023-03-26T02:18:04.072Z,5.27
2023-03-26T02:20:31.054Z,13.30
2023-03-26T02:22:58.161Z,7.53
2023-03-26T02:25:25.358Z,6.93
2023-03-26T02:27:53.844Z,7.43
2023-03-26T02:30:25.741Z,7.00
2023-03-26T02:32:54.117Z,9.20
2023-03-26T02:35:22.164Z,7.53
2023-03-26T02:37:50.871Z,6.83
2023-03-26T02:40:21.088Z,9.03
2023-03-26T02:42:48.245Z,3.10
2023-03-26T02:45:16.611Z,8.50
2023-03-26T02:47:43.501Z,6.40
2023-03-26T02:50:11.978Z,9.70
2023-03-26T02:52:39.178Z,6.03
2023-03-26T02:55:07.346Z,5.87
2023-03-26T02:57:35.611Z,5.63
2023-03-26T03:00:05.934Z,7.87
2023-03-26T03:02:34.228Z,6.37
2023-03-26T03:05:01.396Z,9.17
2023-03-26T03:07:29.068Z,11.27
2023-03-26T03:09:55.928Z,7.13
2023-03-26T03:12:22.840Z,7.70
2023-03-26T03:14:49.695Z,10.47
2023-03-26T03:17:16.616Z,4.03
2023-03-26T03:19:45.265Z,5.73
2023-03-26T03:22:12.430Z,8.57
2023-03-26T03:24:39.867Z,6.20
2023-03-26T03:27:06.769Z,5.90
2023-03-26T03:29:33.709Z,5.87
2023-03-26T03:32:00.892Z,5.20
2023-03-26T03:34:28.090Z,8.33
2023-03-26T03:36:56.286Z,8.63
2023-03-26T03:39:23.244Z,6.63
2023-03-26T03:41:50.265Z,6.83
2023-03-26T03:44:17.169Z,7.73
2023-03-26T03:46:44.053Z,9.83
2023-03-26T03:49:11.110Z,7.77
2023-03-26T03:51:38.031Z,5.17
2023-03-26T03:54:06.624Z,7.70
2023-03-26T03:56:33.544Z,7.57
2023-03-26T03:59:00.446Z,4.80
2023-03-26T04:01:30.596Z,6.97
2023-03-26T04:03:57.612Z,10.10
2023-03-26T04:06:25.277Z,8.83
2023-03-26T04:08:52.408Z,6.47
2023-03-26T04:11:20.658Z,7.13
2023-03-26T04:13:47.615Z,8.03
2023-03-26T04:16:14.523Z,5.70
2023-03-26T04:18:41.506Z,7.90
2023-03-26T04:21:08.378Z,5.67
2023-03-26T04:23:35.622Z,7.13
2023-03-26T04:26:05.252Z,7.40
2023-03-26T04:28:42.371Z,8.97
2023-03-26T04:31:13.803Z,6.77
2023-03-26T04:33:40.996Z,6.23
2023-03-26T04:36:10.197Z,8.23
2023-03-26T04:38:41.166Z,9.83
2023-03-26T04:41:11.352Z,9.37
2023-03-26T04:43:42.498Z,8.97
2023-03-26T04:46:10.496Z,8.97
2023-03-26T04:48:38.746Z,6.50
2023-03-26T04:51:09.913Z,11.30
2023-03-26T04:53:37.065Z,12.67
2023-03-26T04:56:11.770Z,4.03
2023-03-26T04:58:39.963Z,5.70
2023-03-26T05:01:10.506Z,8.87
2023-03-26T05:03:41.220Z,12.33
2023-03-26T05:06:11.757Z,7.43
2023-03-26T05:08:38.608Z,8.43
2023-03-26T05:11:11.362Z,7.47
2023-03-26T05:13:42.679Z,8.30
2023-03-26T05:16:10.239Z,11.63
2023-03-26T05:18:37.180Z,9.10
2023-03-26T05:21:04.560Z,8.80
2023-03-26T05:23:31.467Z,9.77
2023-03-26T05:25:58.378Z,11.73
2023-03-26T05:28:26.602Z,6.53
2023-03-26T05:30:55.335Z,8.80
2023-03-26T05:33:23.188Z,11.53
2023-03-26T05:36:00.969Z,5.73
2023-03-26T05:38:29.092Z,7.37
2023-03-26T05:40:59.523Z,5.37
2023-03-26T05:43:26.700Z,7.73
2023-03-26T05:45:55.001Z,7.40
2023-03-26T05:48:22.630Z,5.87
2023-03-26T05:50:49.824Z,6.30
2023-03-26T05:53:18.144Z,7.53
2023-03-26T05:55:46.027Z,8.17
2023-03-26T05:58:13.230Z,7.67
2023-03-26T06:00:40.046Z,8.77
2023-03-26T06:03:12.742Z,14.73
2023-03-26T06:05:40.375Z,6.07
2023-03-26T06:08:07.706Z,9.33
2023-03-26T06:10:37.861Z,6.23
2023-03-26T06:13:04.755Z,5.37
2023-03-26T06:15:31.600Z,8.20
2023-03-26T06:17:58.544Z,7.30
2023-03-26T06:20:26.894Z,7.60
2023-03-26T06:22:53.744Z,10.47
2023-03-26T06:25:21.061Z,9.83
2023-03-26T06:27:47.947Z,5.80
2023-03-26T06:30:15.248Z,8.13
2023-03-26T06:32:42.118Z,6.27
2023-03-26T06:35:09.544Z,13.97
2023-03-26T06:37:37.876Z,7.57
2023-03-26T06:40:05.956Z,9.60
2023-03-26T06:43:08.874Z,11.67
2023-03-26T06:45:19.707Z,5.90
2023-03-26T06:47:46.680Z,7.17
2023-03-26T06:50:13.627Z,7.47
2023-03-26T06:52:41.870Z,8.23
2023-03-26T06:55:10.351Z,6.23
2023-03-26T06:57:37.749Z,4.47
2023-03-26T07:00:06.157Z,6.73
2023-03-26T07:02:33.093Z,10.53
2023-03-26T07:05:00.220Z,8.87
2023-03-26T07:07:27.082Z,13.70
2023-03-26T07:09:55.312Z,5.37
2023-03-26T07:12:22.206Z,4.67
2023-03-26T07:14:49.060Z,7.10
2023-03-26T07:17:16.117Z,11.37
2023-03-26T07:19:43.097Z,7.73
2023-03-26T07:22:18.817Z,8.03
2023-03-26T07:24:46.335Z,8.40
2023-03-26T07:27:36.151Z,7.10
2023-03-26T07:30:08.233Z,5.63
2023-03-26T07:32:43.551Z,9.10
2023-03-26T07:35:16.760Z,8.30
2023-03-26T07:37:52.826Z,12.27
2023-03-26T07:40:37.834Z,9.70
2023-03-26T07:43:19.867Z,9.77
2023-03-26T07:45:47.304Z,10.47
2023-03-26T07:48:18.354Z,7.57
2023-03-26T07:50:46.185Z,7.27
2023-03-26T07:53:13.546Z,8.87
2023-03-26T07:55:53.018Z,7.07
2023-03-26T07:58:44.726Z,9.10
2023-03-26T08:01:19.684Z,10.87
2023-03-26T08:04:23.614Z,9.17
2023-03-26T08:06:54.279Z,9.97
2023-03-26T08:09:28.689Z,9.43
2023-03-26T08:12:01.021Z,9.17
2023-03-26T08:14:38.115Z,8.40
2023-03-26T08:17:10.698Z,7.00
2023-03-26T08:19:57.933Z,10.30
2023-03-26T08:22:28.984Z,7.23
2023-03-26T08:25:22.520Z,6.27
2023-03-26T08:28:01.746Z,5.87
2023-03-26T08:30:31.075Z,12.13
2023-03-26T08:32:59.755Z,13.27
2023-03-26T08:35:27.881Z,6.03
2023-03-26T08:37:54.962Z,10.53
2023-03-26T08:40:43.713Z,10.30
2023-03-26T08:43:33.740Z,8.43
2023-03-26T08:46:28.639Z,12.57
2023-03-26T08:49:29.599Z,6.33
2023-03-26T08:52:30.715Z,12.87
2023-03-26T08:55:48.626Z,9.40
2023-03-26T08:58:45.199Z,9.10
2023-03-26T09:01:38.189Z,7.63
2023-03-26T09:04:29.536Z,4.17
2023-03-26T09:07:28.576Z,10.67
2023-03-26T09:10:27.085Z,11.93
2023-03-26T09:13:21.171Z,10.23
2023-03-26T09:16:29.360Z,14.13
2023-03-26T09:19:26.946Z,12.13
2023-03-26T09:22:22.720Z,10.90
2023-03-26T09:25:13.607Z,8.87
2023-03-26T09:27:53.930Z,8.07
2023-03-26T09:30:47.636Z,11.73
2023-03-26T09:33:32.698Z,10.27
2023-03-26T09:36:29.267Z,7.50
2023-03-26T09:39:06.468Z,7.77
2023-03-26T09:41:42.391Z,8.20
2023-03-26T09:44:37.884Z,9.47
2023-03-26T09:47:37.463Z,7.17
2023-03-26T09:50:29.788Z,7.70
2023-03-26T09:53:12.816Z,7.67
2023-03-26T09:56:05.747Z,3.57
2023-03-26T09:58:49.826Z,7.47
2023-03-26T10:01:26.126Z,4.40
2023-03-26T10:04:01.658Z,7.53
2023-03-26T10:06:52.030Z,4.83
2023-03-26T10:09:34.171Z,5.77
2023-03-26T10:12:20.094Z,4.63
2023-03-26T10:14:54.861Z,6.03
2023-03-26T10:17:36.892Z,7.20
2023-03-26T10:20:19.552Z,5.60
2023-03-26T10:22:59.279Z,9.13
2023-03-26T10:25:45.139Z,11.77
2023-03-26T10:28:26.278Z,4.07
2023-03-26T10:31:07.736Z,5.00
2023-03-26T10:33:48.117Z,6.33
2023-03-26T10:36:29.719Z,6.83
2023-03-26T10:39:36.354Z,5.20
2023-03-26T10:42:32.277Z,7.00
2023-03-26T10:45:24.569Z,10.87
2023-03-26T10:48:01.969Z,6.03
2023-03-26T10:50:44.839Z,8.30
2023-03-26T10:53:20.822Z,7.50
2023-03-26T10:55:54.796Z,8.47
2023-03-26T10:58:25.694Z,5.30
2023-03-26T11:00:57.649Z,6.87
2023-03-26T11:03:46.522Z,7.63
2023-03-26T11:06:26.552Z,5.90
2023-03-26T11:09:02.282Z,7.37
2023-03-26T11:11:36.444Z,5.10
2023-03-26T11:14:10.287Z,5.57
2023-03-26T11:16:48.901Z,4.07
2023-03-26T11:19:21.869Z,5.90
2023-03-26T11:21:56.232Z,8.90
2023-03-26T11:24:47.783Z,5.10
2023-03-26T11:27:27.322Z,8.03
2023-03-26T11:30:06.155Z,8.37
2023-03-26T11:32:39.875Z,9.77
2023-03-26T11:35:15.518Z,7.73
2023-03-26T11:37:46.337Z,4.40
2023-03-26T11:40:20.206Z,5.20
2023-03-26T11:42:51.154Z,6.80
2023-03-26T11:45:21.719Z,5.87
2023-03-26T11:47:52.421Z,8.87
2023-03-26T11:50:23.741Z,5.10
2023-03-26T11:52:50.813Z,7.00
2023-03-26T11:55:18.017Z,4.23
2023-03-26T11:57:51.470Z,5.30
2023-03-26T12:00:22.994Z,9.37
2023-03-26T12:02:55.692Z,3.73
2023-03-26T12:05:26.662Z,4.07
2023-03-26T12:07:55.822Z,4.03
2023-03-26T12:10:26.695Z,7.93
2023-03-26T12:12:58.936Z,5.27
2023-03-26T12:15:27.217Z,3.97
2023-03-26T12:17:56.543Z,3.87
2023-03-26T12:20:33.706Z,5.50
2023-03-26T12:23:02.244Z,4.43
2023-03-26T12:25:30.501Z,3.93
2023-03-26T12:28:02.666Z,4.50
2023-03-26T12:30:33.769Z,2.60
2023-03-26T12:33:03.813Z,4.10
2023-03-26T12:35:33.419Z,3.60
2023-03-26T12:38:23.996Z,3.67
2023-03-26T12:41:05.150Z,3.57
2023-03-26T12:44:54.487Z,3.40
2023-03-26T12:47:56.241Z,2.87
2023-03-26T12:49:18.930Z,5.13
2023-03-26T12:51:52.244Z,1.67
2023-03-26T12:54:40.281Z,1.47
2023-03-26T12:57:21.658Z,2.47
2023-03-26T13:00:13.303Z,3.03
2023-03-26T13:03:05.684Z,2.07
2023-03-26T13:05:54.258Z,1.57
2023-03-26T13:08:54.362Z,0.73
2023-03-26T13:11:35.224Z,1.23
2023-03-26T13:14:18.088Z,2.33
2023-03-26T13:19:34.267Z,2.53
2023-03-26T13:22:20.253Z,1.73
2023-03-26T13:24:58.444Z,2.00
2023-03-26T13:27:47.245Z,2.47
2023-03-26T13:57:19.293Z,0.30
2023-03-26T13:59:50.544Z,1.60
2023-03-26T14:02:33.268Z,1.10
2023-03-26T14:05:08.755Z,1.07
2023-03-26T14:07:48.272Z,0.77
2023-03-26T14:10:19.834Z,1.33
2023-03-26T14:13:03.628Z,1.80
2023-03-26T14:15:34.704Z,1.00
2023-03-26T14:18:17.234Z,0.77
2023-03-26T14:21:09.703Z,2.23
2023-03-26T14:24:24.276Z,2.17
2023-03-26T14:27:05.504Z,0.87
2023-03-26T14:30:06.308Z,3.83
2023-03-26T14:32:51.686Z,1.67
2023-03-26T14:35:41.352Z,0.57
2023-03-26T14:38:51.738Z,1.40
2023-03-26T14:41:31.270Z,2.37
2023-03-26T14:44:47.766Z,1.50
2023-03-26T14:47:25.591Z,2.10
2023-03-26T14:50:36.061Z,1.00
2023-03-26T14:53:18.292Z,0.83
2023-03-26T14:56:18.963Z,2.70
2023-03-26T14:59:21.642Z,2.70
2023-03-26T15:02:25.113Z,0.50
2023-03-26T15:05:40.777Z,3.10
2023-03-26T15:08:51.484Z,1.80
2023-03-26T15:11:25.517Z,4.27
2023-03-26T15:14:31.279Z,4.77
2023-03-26T15:17:20.771Z,5.00
2023-03-26T15:20:34.604Z,3.10
2023-03-26T15:23:55.445Z,1.60
2023-03-26T15:26:58.704Z,2.00
2023-03-26T15:30:00.320Z,0.60
2023-03-26T15:32:57.208Z,1.90
2023-03-26T15:35:54.698Z,2.80
2023-03-26T15:38:59.728Z,3.20
2023-03-26T15:41:34.614Z,5.87
2023-03-26T15:44:23.955Z,0.53
2023-03-26T15:46:59.339Z,0.20
2023-03-26T15:49:37.114Z,1.30
2023-03-26T15:52:12.644Z,0.90
2023-03-26T15:54:49.428Z,0.93
2023-03-26T15:57:27.447Z,0.50
2023-03-26T16:00:26.502Z,1.60
2023-03-26T16:03:09.266Z,1.43
2023-03-26T16:06:02.257Z,1.13
2023-03-26T16:08:39.151Z,0.20
2023-03-26T16:11:12.437Z,0.20
2023-03-26T16:13:42.643Z,0.63
2023-03-26T16:16:57.633Z,0.70
2023-03-26T16:19:49.757Z,0.43
2023-03-26T16:22:44.696Z,0.20
2023-03-26T16:25:31.480Z,0.67
2023-03-26T16:28:26.474Z,1.60
2023-03-26T16:31:37.637Z,2.13
2023-03-26T16:34:42.435Z,0.97
2023-03-26T16:37:36.236Z,2.73
2023-03-26T16:40:32.429Z,2.53
2023-03-26T16:43:20.390Z,0.63
2023-03-26T16:45:52.872Z,1.00
2023-03-26T16:48:29.426Z,0.93
2023-03-26T16:51:04.760Z,2.30
2023-03-26T16:53:42.818Z,3.03
2023-03-26T16:56:16.574Z,2.20
2023-03-26T16:58:53.833Z,0.87
2023-03-26T17:01:32.434Z,1.00
2023-03-26T17:04:04.288Z,1.07
2023-03-26T17:06:53.267Z,1.33
2023-03-26T17:09:28.333Z,1.03
2023-03-26T17:12:04.649Z,1.43
2023-03-26T17:14:48.956Z,1.20
2023-03-26T17:17:31.416Z,1.43
2023-03-26T17:20:14.534Z,1.87
2023-03-26T17:22:45.801Z,1.40
2023-03-26T17:25:25.106Z,0.73
2023-03-26T17:28:07.344Z,1.70
2023-03-26T17:30:51.050Z,1.33
2023-03-26T17:33:27.596Z,1.60
2023-03-26T17:36:36.166Z,1.90
2023-03-26T17:39:20.363Z,0.60
2023-03-26T17:42:18.774Z,2.00
2023-03-26T17:44:50.667Z,0.60
2023-03-26T17:47:29.704Z,2.53
2023-03-26T17:50:01.181Z,1.33
2023-03-26T17:52:41.648Z,2.20
2023-03-26T17:55:16.665Z,1.27
2023-03-26T17:57:46.490Z,2.90
2023-03-26T18:00:20.753Z,1.60
2023-03-26T18:02:54.029Z,2.20
2023-03-26T18:05:24.716Z,1.87
2023-03-26T18:08:28.595Z,1.00
2023-03-26T18:11:36.134Z,4.93
2023-03-26T18:14:31.202Z,1.43
2023-03-26T18:17:01.039Z,1.50
2023-03-26T18:19:28.741Z,1.20
2023-03-26T18:21:57.793Z,0.80
2023-03-26T18:24:28.209Z,0.87
2023-03-26T18:27:01.549Z,1.80
2023-03-26T18:29:30.419Z,2.53
2023-03-26T18:32:00.543Z,3.10
2023-03-26T18:34:30.812Z,3.07
2023-03-26T18:37:17.679Z,1.10
2023-03-26T18:39:57.041Z,2.30
2023-03-26T18:42:27.059Z,1.30
2023-03-26T18:45:01.147Z,1.73
2023-03-26T18:47:30.331Z,1.53
2023-03-26T18:49:58.192Z,2.57
2023-03-26T18:52:29.294Z,1.37
2023-03-26T18:54:59.153Z,3.83
2023-03-26T18:57:28.923Z,1.50
2023-03-26T19:00:08.966Z,2.97
2023-03-26T19:02:36.631Z,3.13
2023-03-26T19:05:04.183Z,1.60
2023-03-26T19:07:31.575Z,2.50
2023-03-26T19:10:01.291Z,1.33
2023-03-26T19:12:32.975Z,2.33
2023-03-26T19:15:07.698Z,1.77
2023-03-26T19:17:40.779Z,1.30
2023-03-26T19:20:15.382Z,2.90
2023-03-26T19:22:44.534Z,2.90
2023-03-26T19:25:21.545Z,2.67
2023-03-26T19:27:50.736Z,2.27
2023-03-26T19:30:28.374Z,1.20
2023-03-26T19:32:55.864Z,0.90
2023-03-26T19:35:41.940Z,1.80
2023-03-26T19:38:23.618Z,0.87
2023-03-26T19:40:52.419Z,1.63
2023-03-26T19:43:21.128Z,2.43
2023-03-26T19:46:00.236Z,2.73
2023-03-26T19:48:45.676Z,2.20
2023-03-26T19:51:20.176Z,2.33
2023-03-26T19:53:50.035Z,1.40
2023-03-26T19:56:19.100Z,1.40
2023-03-26T19:58:47.359Z,7.30
2023-03-26T20:01:18.192Z,14.93
2023-03-26T20:03:46.980Z,3.37
2023-03-26T20:06:15.922Z,3.43
2023-03-26T20:08:43.089Z,6.20
2023-03-26T20:11:16.597Z,4.27
2023-03-26T20:13:43.617Z,3.67
2023-03-26T20:16:19.269Z,1.63
2023-03-26T20:18:46.057Z,2.43
2023-03-26T20:21:13.158Z,1.20
2023-03-26T20:23:40.759Z,1.70
2023-03-26T20:26:12.544Z,1.37
2023-03-26T20:28:48.382Z,2.33
2023-03-26T20:31:19.317Z,0.70
2023-03-26T20:33:47.971Z,0.60
2023-03-26T20:36:34.127Z,1.23
2023-03-26T20:39:05.986Z,0.97
2023-03-26T20:41:34.168Z,0.50
2023-03-26T20:44:01.316Z,3.07
2023-03-26T20:46:31.137Z,0.83
2023-03-26T20:48:59.460Z,1.00
2023-03-26T20:51:28.036Z,1.10
2023-03-26T20:53:56.049Z,0.60
2023-03-26T20:56:23.527Z,0.50
2023-03-26T20:59:03.447Z,0.50
2023-03-26T21:01:37.698Z,0.70
2023-03-26T21:04:04.887Z,0.53
2023-03-26T21:06:32.175Z,0.90
2023-03-26T21:08:59.566Z,1.57
2023-03-26T21:11:38.591Z,1.00
2023-03-26T21:14:13.395Z,0.57
2023-03-26T21:16:42.276Z,0.70
2023-03-26T21:19:10.343Z,0.30
2023-03-26T21:21:52.779Z,0.50
2023-03-26T21:24:29.577Z,0.70
2023-03-26T21:27:04.782Z,0.50
2023-03-26T21:29:32.106Z,0.30
2023-03-26T21:32:00.809Z,0.20
2023-03-26T21:34:29.180Z,0.53
2023-03-26T21:36:56.476Z,0.50
2023-03-26T21:39:24.109Z,0.57
2023-03-26T21:42:05.219Z,0.47
2023-03-26T21:44:33.591Z,0.40
2023-03-26T21:47:02.448Z,2.30
2023-03-26T21:49:30.021Z,0.60
2023-03-26T21:51:57.469Z,1.03
2023-03-26T21:54:26.994Z,0.93
2023-03-26T21:57:17.675Z,0.73
2023-03-26T21:59:54.350Z,0.93
2023-03-26T22:02:28.987Z,0.77
2023-03-26T22:05:01.069Z,0.70
2023-03-26T22:07:33.999Z,1.70
2023-03-26T22:10:00.910Z,1.37
2023-03-26T22:12:27.870Z,1.10
2023-03-26T22:14:54.726Z,0.53
2023-03-26T22:17:23.038Z,1.50
2023-03-26T22:19:50.045Z,1.40
2023-03-26T22:22:16.880Z,0.80
2023-03-26T22:24:43.946Z,0.47
2023-03-26T22:27:12.845Z,1.70
2023-03-26T22:29:39.863Z,1.23
2023-03-26T22:32:06.969Z,0.60
2023-03-26T22:34:35.325Z,1.57
2023-03-26T22:37:02.123Z,1.23
2023-03-26T22:39:29.118Z,1.10
2023-03-26T22:41:56.197Z,0.77
2023-03-26T22:44:23.030Z,1.97
2023-03-26T22:46:51.406Z,1.30
2023-03-26T22:49:18.866Z,2.13
2023-03-26T22:51:47.084Z,2.30
2023-03-26T22:54:14.523Z,3.90
2023-03-26T22:56:41.710Z,5.10
2023-03-26T22:59:08.616Z,5.83
2023-03-26T23:01:36.135Z,3.53
2023-03-26T23:04:03.086Z,5.00
2023-03-26T23:06:31.463Z,1.73
2023-03-26T23:08:59.662Z,3.03
2023-03-26T23:11:26.654Z,2.57
2023-03-26T23:13:53.444Z,3.13
2023-03-26T23:16:21.663Z,4.03
2023-03-26T23:18:48.682Z,6.60
2023-03-26T23:21:18.109Z,2.87
2023-03-26T23:23:46.042Z,3.30
2023-03-26T23:26:14.942Z,6.33
2023-03-26T23:28:42.209Z,4.27
2023-03-26T23:31:10.569Z,4.93
2023-03-26T23:33:38.961Z,4.03
2023-03-26T23:36:10.516Z,3.37
2023-03-26T23:38:43.665Z,7.13
2023-03-26T23:41:14.855Z,4.10
2023-03-26T23:43:53.989Z,4.87
2023-03-26T23:46:23.774Z,6.30
2023-03-26T23:48:54.851Z,5.70
2023-03-26T23:51:22.241Z,5.73
2023-03-26T23:53:49.787Z,6.27
2023-03-26T23:56:17.236Z,9.27
2023-03-26T23:58:45.464Z,9.43
